sensor_id;sensor_type;location;lat;lon;timestamp;pressure;altitude;pressure_sealevel;temperature;humidity
27144;BME280;14672;50.250;8.312;2023-03-15T00:00:53;98435.97;;;6.85;57.93
27144;BME280;14672;50.250;8.312;2023-03-15T00:03:20;98435.94;;;6.73;57.79
27144;BME280;14672;50.250;8.312;2023-03-15T00:05:48;98433.97;;;6.70;58.33
27144;BME280;14672;50.250;8.312;2023-03-15T00:08:14;98440.31;;;6.74;58.31
27144;BME280;14672;50.250;8.312;2023-03-15T00:10:45;98453.91;;;6.63;58.40
27144;BME280;14672;50.250;8.312;2023-03-15T00:13:15;98451.19;;;6.59;58.91
27144;BME280;14672;50.250;8.312;2023-03-15T00:15:50;98452.69;;;6.47;59.13
27144;BME280;14672;50.250;8.312;2023-03-15T00:18:19;98455.53;;;6.31;59.61
27144;BME280;14672;50.250;8.312;2023-03-15T00:20:45;98454.72;;;6.31;60.27
27144;BME280;14672;50.250;8.312;2023-03-15T00:23:13;98450.59;;;6.35;60.55
27144;BME280;14672;50.250;8.312;2023-03-15T00:25:42;98447.56;;;6.10;60.58
27144;BME280;14672;50.250;8.312;2023-03-15T00:28:08;98450.22;;;6.17;60.33
27144;BME280;14672;50.250;8.312;2023-03-15T00:30:34;98448.16;;;6.01;60.86
27144;BME280;14672;50.250;8.312;2023-03-15T00:33:00;98447.84;;;5.99;60.50
27144;BME280;14672;50.250;8.312;2023-03-15T00:35:26;98444.94;;;6.03;61.00
27144;BME280;14672;50.250;8.312;2023-03-15T00:37:55;98455.88;;;6.01;60.80
27144;BME280;14672;50.250;8.312;2023-03-15T00:40:22;98468.28;;;6.03;60.93
27144;BME280;14672;50.250;8.312;2023-03-15T00:42:49;98470.69;;;6.05;60.09
27144;BME280;14672;50.250;8.312;2023-03-15T00:45:20;98476.53;;;5.94;61.25
27144;BME280;14672;50.250;8.312;2023-03-15T00:47:51;98470.66;;;5.89;61.30
27144;BME280;14672;50.250;8.312;2023-03-15T00:50:19;98480.66;;;5.90;60.95
27144;BME280;14672;50.250;8.312;2023-03-15T00:52:45;98480.00;;;5.82;61.41
27144;BME280;14672;50.250;8.312;2023-03-15T00:55:14;98481.03;;;5.72;61.20
27144;BME280;14672;50.250;8.312;2023-03-15T00:57:44;98488.31;;;5.69;61.41
27144;BME280;14672;50.250;8.312;2023-03-15T01:00:18;98481.53;;;5.67;61.39
27144;BME280;14672;50.250;8.312;2023-03-15T01:02:53;98485.75;;;5.59;62.10
27144;BME280;14672;50.250;8.312;2023-03-15T01:05:19;98484.59;;;5.56;61.64
27144;BME280;14672;50.250;8.312;2023-03-15T01:07:46;98487.91;;;5.51;61.59
27144;BME280;14672;50.250;8.312;2023-03-15T01:10:13;98479.13;;;5.49;61.79
27144;BME280;14672;50.250;8.312;2023-03-15T01:12:40;98480.28;;;5.52;61.59
27144;BME280;14672;50.250;8.312;2023-03-15T01:15:10;98488.06;;;5.44;61.93
27144;BME280;14672;50.250;8.312;2023-03-15T01:17:36;98484.88;;;5.42;61.65
27144;BME280;14672;50.250;8.312;2023-03-15T01:20:03;98482.00;;;5.46;62.10
27144;BME280;14672;50.250;8.312;2023-03-15T01:22:30;98487.69;;;5.42;61.67
27144;BME280;14672;50.250;8.312;2023-03-15T01:24:55;98484.88;;;5.42;61.57
27144;BME280;14672;50.250;8.312;2023-03-15T01:27:21;98501.59;;;5.33;62.08
27144;BME280;14672;50.250;8.312;2023-03-15T01:29:47;98496.69;;;5.37;61.74
27144;BME280;14672;50.250;8.312;2023-03-15T01:32:13;98500.34;;;5.34;61.83
27144;BME280;14672;50.250;8.312;2023-03-15T01:34:39;98503.97;;;5.35;62.01
27144;BME280;14672;50.250;8.312;2023-03-15T01:37:05;98509.31;;;5.29;61.65
27144;BME280;14672;50.250;8.312;2023-03-15T01:39:31;98509.06;;;5.20;61.54
27144;BME280;14672;50.250;8.312;2023-03-15T01:41:57;98511.16;;;5.16;62.16
27144;BME280;14672;50.250;8.312;2023-03-15T01:44:23;98520.69;;;5.22;61.79
27144;BME280;14672;50.250;8.312;2023-03-15T01:46:49;98519.97;;;5.18;61.71
27144;BME280;14672;50.250;8.312;2023-03-15T01:49:32;98526.03;;;5.16;61.70
27144;BME280;14672;50.250;8.312;2023-03-15T01:52:14;98526.47;;;5.15;61.46
27144;BME280;14672;50.250;8.312;2023-03-15T01:55:04;98532.97;;;5.12;61.02
27144;BME280;14672;50.250;8.312;2023-03-15T01:57:43;98520.09;;;5.11;61.01
27144;BME280;14672;50.250;8.312;2023-03-15T02:00:18;98525.75;;;5.11;61.86
27144;BME280;14672;50.250;8.312;2023-03-15T02:02:55;98514.47;;;5.11;61.10
27144;BME280;14672;50.250;8.312;2023-03-15T02:05:30;98525.94;;;5.00;60.96
27144;BME280;14672;50.250;8.312;2023-03-15T02:07:58;98517.91;;;4.99;61.22
27144;BME280;14672;50.250;8.312;2023-03-15T02:10:53;98526.84;;;4.94;60.88
27144;BME280;14672;50.250;8.312;2023-03-15T02:13:23;98525.44;;;4.82;61.34
27144;BME280;14672;50.250;8.312;2023-03-15T02:15:51;98533.13;;;4.82;61.43
27144;BME280;14672;50.250;8.312;2023-03-15T02:18:19;98523.00;;;4.84;61.60
27144;BME280;14672;50.250;8.312;2023-03-15T02:23:26;98520.34;;;4.77;61.90
27144;BME280;14672;50.250;8.312;2023-03-15T02:26:33;98522.69;;;4.79;62.32
27144;BME280;14672;50.250;8.312;2023-03-15T02:29:04;98512.31;;;4.76;62.30
27144;BME280;14672;50.250;8.312;2023-03-15T02:31:31;98521.97;;;4.74;62.48
27144;BME280;14672;50.250;8.312;2023-03-15T02:34:06;98520.41;;;4.73;61.75
27144;BME280;14672;50.250;8.312;2023-03-15T02:36:34;98527.31;;;4.69;61.93
27144;BME280;14672;50.250;8.312;2023-03-15T02:39:01;98526.63;;;4.61;61.34
27144;BME280;14672;50.250;8.312;2023-03-15T02:41:41;98537.44;;;4.63;61.46
27144;BME280;14672;50.250;8.312;2023-03-15T02:44:23;98534.63;;;4.63;61.90
27144;BME280;14672;50.250;8.312;2023-03-15T02:46:54;98541.06;;;4.63;61.39
27144;BME280;14672;50.250;8.312;2023-03-15T02:49:26;98543.13;;;4.59;61.80
27144;BME280;14672;50.250;8.312;2023-03-15T02:51:54;98545.25;;;4.52;62.37
27144;BME280;14672;50.250;8.312;2023-03-15T02:54:20;98548.69;;;4.63;61.93
27144;BME280;14672;50.250;8.312;2023-03-15T02:56:45;98540.38;;;4.56;62.10
27144;BME280;14672;50.250;8.312;2023-03-15T02:59:11;98562.56;;;4.50;62.59
27144;BME280;14672;50.250;8.312;2023-03-15T03:01:37;98561.53;;;4.64;61.97
27144;BME280;14672;50.250;8.312;2023-03-15T03:04:03;98563.97;;;4.62;62.00
27144;BME280;14672;50.250;8.312;2023-03-15T03:06:29;98565.03;;;4.71;62.01
27144;BME280;14672;50.250;8.312;2023-03-15T03:08:55;98569.59;;;4.89;61.69
27144;BME280;14672;50.250;8.312;2023-03-15T03:11:22;98564.84;;;4.82;61.60
27144;BME280;14672;50.250;8.312;2023-03-15T03:13:48;98578.25;;;4.98;61.57
27144;BME280;14672;50.250;8.312;2023-03-15T03:16:13;98577.16;;;4.92;61.87
27144;BME280;14672;50.250;8.312;2023-03-15T03:18:39;98576.69;;;4.97;62.24
27144;BME280;14672;50.250;8.312;2023-03-15T03:21:07;98580.03;;;5.11;61.62
27144;BME280;14672;50.250;8.312;2023-03-15T03:23:35;98575.94;;;5.16;61.31
27144;BME280;14672;50.250;8.312;2023-03-15T03:26:01;98587.44;;;5.25;61.04
27144;BME280;14672;50.250;8.312;2023-03-15T03:28:30;98591.97;;;5.19;61.28
27144;BME280;14672;50.250;8.312;2023-03-15T03:30:56;98593.06;;;5.25;61.05
27144;BME280;14672;50.250;8.312;2023-03-15T03:33:23;98590.19;;;5.29;61.24
27144;BME280;14672;50.250;8.312;2023-03-15T03:35:50;98589.06;;;5.22;61.26
27144;BME280;14672;50.250;8.312;2023-03-15T03:38:16;98599.84;;;5.28;60.90
27144;BME280;14672;50.250;8.312;2023-03-15T03:40:41;98587.09;;;5.43;60.71
27144;BME280;14672;50.250;8.312;2023-03-15T03:43:08;98591.09;;;5.45;60.50
27144;BME280;14672;50.250;8.312;2023-03-15T03:45:34;98592.31;;;5.44;60.37
27144;BME280;14672;50.250;8.312;2023-03-15T03:48:00;98591.72;;;5.33;60.82
27144;BME280;14672;50.250;8.312;2023-03-15T03:50:26;98590.72;;;5.43;60.67
27144;BME280;14672;50.250;8.312;2023-03-15T03:52:52;98600.38;;;5.42;60.47
27144;BME280;14672;50.250;8.312;2023-03-15T03:55:18;98605.75;;;5.56;60.45
27144;BME280;14672;50.250;8.312;2023-03-15T03:57:44;98608.66;;;5.53;60.31
27144;BME280;14672;50.250;8.312;2023-03-15T04:00:13;98616.31;;;5.52;60.67
27144;BME280;14672;50.250;8.312;2023-03-15T04:02:39;98619.84;;;5.56;60.61
27144;BME280;14672;50.250;8.312;2023-03-15T04:05:11;98622.44;;;5.47;61.40
27144;BME280;14672;50.250;8.312;2023-03-15T04:07:38;98621.69;;;5.43;61.83
27144;BME280;14672;50.250;8.312;2023-03-15T04:10:04;98616.06;;;5.43;61.55
27144;BME280;14672;50.250;8.312;2023-03-15T04:12:30;98634.25;;;5.39;62.02
27144;BME280;14672;50.250;8.312;2023-03-15T04:14:56;98623.28;;;5.44;61.23
27144;BME280;14672;50.250;8.312;2023-03-15T04:17:22;98620.03;;;5.46;61.33
27144;BME280;14672;50.250;8.312;2023-03-15T04:19:47;98620.81;;;5.46;61.37
27144;BME280;14672;50.250;8.312;2023-03-15T04:22:13;98616.00;;;5.47;61.64
27144;BME280;14672;50.250;8.312;2023-03-15T04:24:43;98620.47;;;5.44;61.56
27144;BME280;14672;50.250;8.312;2023-03-15T04:27:10;98622.56;;;5.40;61.58
27144;BME280;14672;50.250;8.312;2023-03-15T04:29:43;98628.25;;;5.37;61.88
27144;BME280;14672;50.250;8.312;2023-03-15T04:32:09;98624.19;;;5.38;61.69
27144;BME280;14672;50.250;8.312;2023-03-15T04:34:35;98623.72;;;5.43;61.78
27144;BME280;14672;50.250;8.312;2023-03-15T04:37:04;98626.19;;;5.41;62.18
27144;BME280;14672;50.250;8.312;2023-03-15T04:39:30;98631.09;;;5.37;62.35
27144;BME280;14672;50.250;8.312;2023-03-15T04:41:56;98618.47;;;5.45;62.11
27144;BME280;14672;50.250;8.312;2023-03-15T04:44:22;98621.94;;;5.52;62.80
27144;BME280;14672;50.250;8.312;2023-03-15T04:46:53;98626.53;;;5.43;62.33
27144;BME280;14672;50.250;8.312;2023-03-15T04:49:19;98631.28;;;5.46;61.73
27144;BME280;14672;50.250;8.312;2023-03-15T04:51:45;98632.09;;;5.46;61.65
27144;BME280;14672;50.250;8.312;2023-03-15T04:54:10;98635.03;;;5.39;62.15
27144;BME280;14672;50.250;8.312;2023-03-15T04:56:36;98629.06;;;5.37;62.45
27144;BME280;14672;50.250;8.312;2023-03-15T04:59:02;98639.53;;;5.37;62.76
27144;BME280;14672;50.250;8.312;2023-03-15T05:01:30;98640.25;;;5.41;63.00
27144;BME280;14672;50.250;8.312;2023-03-15T05:03:57;98647.44;;;5.45;62.89
27144;BME280;14672;50.250;8.312;2023-03-15T05:06:23;98644.59;;;5.45;63.14
27144;BME280;14672;50.250;8.312;2023-03-15T05:08:49;98639.25;;;5.51;63.04
27144;BME280;14672;50.250;8.312;2023-03-15T05:11:15;98636.50;;;5.47;62.55
27144;BME280;14672;50.250;8.312;2023-03-15T05:13:41;98635.88;;;5.59;63.39
27144;BME280;14672;50.250;8.312;2023-03-15T05:16:07;98645.56;;;5.58;62.58
27144;BME280;14672;50.250;8.312;2023-03-15T05:18:33;98643.47;;;5.62;63.15
27144;BME280;14672;50.250;8.312;2023-03-15T05:20:58;98644.25;;;5.63;64.01
27144;BME280;14672;50.250;8.312;2023-03-15T05:23:24;98642.19;;;5.67;64.37
27144;BME280;14672;50.250;8.312;2023-03-15T05:25:54;98643.47;;;5.62;64.76
27144;BME280;14672;50.250;8.312;2023-03-15T05:28:22;98649.41;;;5.68;64.80
27144;BME280;14672;50.250;8.312;2023-03-15T05:30:49;98645.56;;;5.78;65.27
27144;BME280;14672;50.250;8.312;2023-03-15T05:33:16;98650.13;;;5.72;65.73
27144;BME280;14672;50.250;8.312;2023-03-15T05:35:43;98640.41;;;5.77;65.81
27144;BME280;14672;50.250;8.312;2023-03-15T05:38:10;98640.41;;;5.77;66.24
27144;BME280;14672;50.250;8.312;2023-03-15T05:40:45;98632.78;;;5.74;65.97
27144;BME280;14672;50.250;8.312;2023-03-15T05:43:11;98640.75;;;5.79;66.22
27144;BME280;14672;50.250;8.312;2023-03-15T05:45:38;98642.69;;;5.82;66.03
27144;BME280;14672;50.250;8.312;2023-03-15T05:48:04;98651.53;;;5.84;66.17
27144;BME280;14672;50.250;8.312;2023-03-15T05:50:31;98652.75;;;5.83;66.19
27144;BME280;14672;50.250;8.312;2023-03-15T05:52:57;98660.31;;;5.86;65.82
27144;BME280;14672;50.250;8.312;2023-03-15T05:55:23;98656.78;;;5.82;66.67
27144;BME280;14672;50.250;8.312;2023-03-15T05:57:49;98661.19;;;5.83;66.14
27144;BME280;14672;50.250;8.312;2023-03-15T06:00:16;98666.78;;;5.86;65.89
27144;BME280;14672;50.250;8.312;2023-03-15T06:02:45;98671.13;;;5.91;65.73
27144;BME280;14672;50.250;8.312;2023-03-15T06:05:11;98671.50;;;5.93;65.73
27144;BME280;14672;50.250;8.312;2023-03-15T06:07:37;98682.28;;;5.98;65.53
27144;BME280;14672;50.250;8.312;2023-03-15T06:10:04;98683.72;;;6.06;65.68
27144;BME280;14672;50.250;8.312;2023-03-15T06:12:30;98677.66;;;6.07;65.40
27144;BME280;14672;50.250;8.312;2023-03-15T06:14:56;98684.19;;;6.04;65.46
27144;BME280;14672;50.250;8.312;2023-03-15T06:17:21;98682.88;;;6.09;65.11
27144;BME280;14672;50.250;8.312;2023-03-15T06:19:47;98696.84;;;6.16;65.30
27144;BME280;14672;50.250;8.312;2023-03-15T06:22:13;98685.97;;;6.14;64.64
27144;BME280;14672;50.250;8.312;2023-03-15T06:24:39;98691.03;;;6.23;64.86
27144;BME280;14672;50.250;8.312;2023-03-15T06:27:04;98694.34;;;6.18;64.69
27144;BME280;14672;50.250;8.312;2023-03-15T06:29:30;98705.50;;;6.25;64.82
27144;BME280;14672;50.250;8.312;2023-03-15T06:31:56;98702.25;;;6.27;65.13
27144;BME280;14672;50.250;8.312;2023-03-15T06:34:22;98700.66;;;6.26;64.98
27144;BME280;14672;50.250;8.312;2023-03-15T06:36:47;98701.09;;;6.24;64.90
27144;BME280;14672;50.250;8.312;2023-03-15T06:39:17;98709.56;;;6.24;64.38
27144;BME280;14672;50.250;8.312;2023-03-15T06:41:43;98706.22;;;6.29;63.96
27144;BME280;14672;50.250;8.312;2023-03-15T06:44:09;98703.78;;;6.31;64.13
27144;BME280;14672;50.250;8.312;2023-03-15T06:46:35;98706.59;;;6.31;64.51
27144;BME280;14672;50.250;8.312;2023-03-15T06:49:02;98706.09;;;6.36;64.30
27144;BME280;14672;50.250;8.312;2023-03-15T06:51:28;98708.53;;;6.34;65.19
27144;BME280;14672;50.250;8.312;2023-03-15T06:53:54;98706.16;;;6.33;65.04
27144;BME280;14672;50.250;8.312;2023-03-15T06:56:22;98702.00;;;6.37;64.77
27144;BME280;14672;50.250;8.312;2023-03-15T06:58:47;98703.28;;;6.36;64.86
27144;BME280;14672;50.250;8.312;2023-03-15T07:01:14;98710.13;;;6.35;65.06
27144;BME280;14672;50.250;8.312;2023-03-15T07:03:41;98710.47;;;6.37;65.24
27144;BME280;14672;50.250;8.312;2023-03-15T07:06:07;98714.97;;;6.35;65.18
27144;BME280;14672;50.250;8.312;2023-03-15T07:08:33;98708.34;;;6.45;65.03
27144;BME280;14672;50.250;8.312;2023-03-15T07:10:59;98722.50;;;6.41;65.04
27144;BME280;14672;50.250;8.312;2023-03-15T07:13:25;98722.44;;;6.45;64.98
27144;BME280;14672;50.250;8.312;2023-03-15T07:15:55;98728.19;;;6.57;64.76
27144;BME280;14672;50.250;8.312;2023-03-15T07:18:22;98725.38;;;6.57;64.59
27144;BME280;14672;50.250;8.312;2023-03-15T07:20:58;98736.59;;;6.61;64.73
27144;BME280;14672;50.250;8.312;2023-03-15T07:23:25;98735.28;;;6.66;64.86
27144;BME280;14672;50.250;8.312;2023-03-15T07:25:52;98734.13;;;6.63;65.15
27144;BME280;14672;50.250;8.312;2023-03-15T07:28:19;98741.66;;;6.70;65.06
27144;BME280;14672;50.250;8.312;2023-03-15T07:31:03;98738.31;;;6.75;65.35
27144;BME280;14672;50.250;8.312;2023-03-15T07:33:32;98742.91;;;6.85;65.25
27144;BME280;14672;50.250;8.312;2023-03-15T07:35:58;98754.94;;;6.89;65.32
27144;BME280;14672;50.250;8.312;2023-03-15T07:38:26;98757.41;;;6.87;65.23
27144;BME280;14672;50.250;8.312;2023-03-15T07:40:53;98765.22;;;6.99;65.28
27144;BME280;14672;50.250;8.312;2023-03-15T07:43:20;98762.09;;;6.93;62.72
27144;BME280;14672;50.250;8.312;2023-03-15T07:45:46;98769.25;;;6.98;62.76
27144;BME280;14672;50.250;8.312;2023-03-15T07:48:12;98775.63;;;7.02;62.86
27144;BME280;14672;50.250;8.312;2023-03-15T07:50:38;98771.78;;;7.12;63.25
27144;BME280;14672;50.250;8.312;2023-03-15T07:53:05;98776.72;;;7.08;62.68
27144;BME280;14672;50.250;8.312;2023-03-15T07:55:33;98785.13;;;7.12;62.46
27144;BME280;14672;50.250;8.312;2023-03-15T07:57:59;98787.13;;;7.11;63.31
27144;BME280;14672;50.250;8.312;2023-03-15T08:00:25;98795.44;;;7.18;63.16
27144;BME280;14672;50.250;8.312;2023-03-15T08:02:52;98797.22;;;7.12;63.36
27144;BME280;14672;50.250;8.312;2023-03-15T08:05:19;98801.47;;;7.20;62.65
27144;BME280;14672;50.250;8.312;2023-03-15T08:07:47;98813.44;;;7.08;62.32
27144;BME280;14672;50.250;8.312;2023-03-15T08:10:16;98818.41;;;7.20;61.93
27144;BME280;14672;50.250;8.312;2023-03-15T08:12:42;98822.19;;;7.14;62.17
27144;BME280;14672;50.250;8.312;2023-03-15T08:15:13;98822.63;;;7.12;62.44
27144;BME280;14672;50.250;8.312;2023-03-15T08:17:41;98830.06;;;7.22;62.02
27144;BME280;14672;50.250;8.312;2023-03-15T08:20:09;98834.13;;;7.21;62.19
27144;BME280;14672;50.250;8.312;2023-03-15T08:22:37;98831.50;;;7.30;62.22
27144;BME280;14672;50.250;8.312;2023-03-15T08:25:04;98842.88;;;7.27;62.12
27144;BME280;14672;50.250;8.312;2023-03-15T08:27:31;98848.44;;;7.30;62.01
27144;BME280;14672;50.250;8.312;2023-03-15T08:29:57;98847.06;;;7.38;62.38
27144;BME280;14672;50.250;8.312;2023-03-15T08:32:23;98847.50;;;7.37;61.98
27144;BME280;14672;50.250;8.312;2023-03-15T08:34:49;98855.03;;;7.43;61.92
27144;BME280;14672;50.250;8.312;2023-03-15T08:37:17;98852.03;;;7.50;61.60
27144;BME280;14672;50.250;8.312;2023-03-15T08:39:43;98852.53;;;7.45;61.54
27144;BME280;14672;50.250;8.312;2023-03-15T08:42:10;98847.81;;;7.59;61.36
27144;BME280;14672;50.250;8.312;2023-03-15T08:44:37;98853.88;;;7.57;62.23
27144;BME280;14672;50.250;8.312;2023-03-15T08:47:03;98863.28;;;7.70;62.44
27144;BME280;14672;50.250;8.312;2023-03-15T08:49:30;98873.38;;;7.71;62.52
27144;BME280;14672;50.250;8.312;2023-03-15T08:51:56;98876.91;;;7.75;62.41
27144;BME280;14672;50.250;8.312;2023-03-15T08:54:22;98879.03;;;7.71;61.71
27144;BME280;14672;50.250;8.312;2023-03-15T08:56:50;98883.06;;;7.70;61.86
27144;BME280;14672;50.250;8.312;2023-03-15T08:59:16;98884.75;;;7.68;61.76
27144;BME280;14672;50.250;8.312;2023-03-15T09:01:42;98879.44;;;7.70;61.68
27144;BME280;14672;50.250;8.312;2023-03-15T09:04:09;98879.25;;;7.61;62.21
27144;BME280;14672;50.250;8.312;2023-03-15T09:06:36;98880.63;;;7.72;61.21
27144;BME280;14672;50.250;8.312;2023-03-15T09:09:02;98894.22;;;7.77;61.35
27144;BME280;14672;50.250;8.312;2023-03-15T09:11:29;98888.22;;;7.75;61.16
27144;BME280;14672;50.250;8.312;2023-03-15T09:13:55;98903.97;;;7.76;61.87
27144;BME280;14672;50.250;8.312;2023-03-15T09:16:21;98907.03;;;7.82;62.30
27144;BME280;14672;50.250;8.312;2023-03-15T09:18:47;98902.53;;;7.84;61.38
27144;BME280;14672;50.250;8.312;2023-03-15T09:21:13;98902.53;;;7.68;61.58
27144;BME280;14672;50.250;8.312;2023-03-15T09:23:39;98921.06;;;7.69;61.52
27144;BME280;14672;50.250;8.312;2023-03-15T09:26:05;98914.97;;;7.71;61.60
27144;BME280;14672;50.250;8.312;2023-03-15T09:28:31;98916.88;;;7.57;62.19
27144;BME280;14672;50.250;8.312;2023-03-15T09:30:57;98919.72;;;7.57;62.10
27144;BME280;14672;50.250;8.312;2023-03-15T09:33:23;98931.03;;;7.57;61.80
27144;BME280;14672;50.250;8.312;2023-03-15T09:35:52;98927.84;;;7.55;62.49
27144;BME280;14672;50.250;8.312;2023-03-15T09:38:18;98931.09;;;7.54;62.84
27144;BME280;14672;50.250;8.312;2023-03-15T09:40:45;98935.06;;;7.56;62.95
27144;BME280;14672;50.250;8.312;2023-03-15T09:52:21;98946.38;;;7.56;63.13
27144;BME280;14672;50.250;8.312;2023-03-15T09:55:15;98946.97;;;7.68;62.68
27144;BME280;14672;50.250;8.312;2023-03-15T10:00:18;98951.50;;;7.81;62.47
27144;BME280;14672;50.250;8.312;2023-03-15T10:02:57;98965.22;;;7.83;62.84
27144;BME280;14672;50.250;8.312;2023-03-15T10:05:40;98965.56;;;7.85;62.43
27144;BME280;14672;50.250;8.312;2023-03-15T10:08:15;98958.91;;;7.75;62.03
27144;BME280;14672;50.250;8.312;2023-03-15T10:10:59;98958.28;;;7.68;62.43
27144;BME280;14672;50.250;8.312;2023-03-15T10:16:49;98964.78;;;7.65;61.77
27144;BME280;14672;50.250;8.312;2023-03-15T10:19:46;98957.47;;;7.67;62.51
27144;BME280;14672;50.250;8.312;2023-03-15T10:24:58;98965.22;;;7.83;62.49
27144;BME280;14672;50.250;8.312;2023-03-15T10:27:58;98965.09;;;8.22;64.01
27144;BME280;14672;50.250;8.312;2023-03-15T10:30:30;98960.44;;;8.64;62.70
27144;BME280;14672;50.250;8.312;2023-03-15T10:33:14;98953.41;;;8.85;63.42
27144;BME280;14672;50.250;8.312;2023-03-15T10:35:41;98952.53;;;9.17;61.12
27144;BME280;14672;50.250;8.312;2023-03-15T10:38:15;98948.56;;;9.43;59.87
27144;BME280;14672;50.250;8.312;2023-03-15T10:45:58;98941.91;;;9.62;58.60
27144;BME280;14672;50.250;8.312;2023-03-15T10:48:26;98943.69;;;10.23;58.64
27144;BME280;14672;50.250;8.312;2023-03-15T10:50:55;98938.22;;;10.28;58.03
27144;BME280;14672;50.250;8.312;2023-03-15T10:53:22;98934.13;;;10.55;56.85
27144;BME280;14672;50.250;8.312;2023-03-15T10:56:04;98940.47;;;10.59;56.47
27144;BME280;14672;50.250;8.312;2023-03-15T10:58:46;98946.59;;;10.70;56.40
27144;BME280;14672;50.250;8.312;2023-03-15T11:01:27;98949.47;;;10.92;55.36
27144;BME280;14672;50.250;8.312;2023-03-15T11:04:25;98953.66;;;11.00;54.88
27144;BME280;14672;50.250;8.312;2023-03-15T11:09:24;98958.41;;;10.56;53.23
27144;BME280;14672;50.250;8.312;2023-03-15T11:12:04;98962.31;;;10.49;52.89
27144;BME280;14672;50.250;8.312;2023-03-15T11:14:42;98963.91;;;10.50;54.02
27144;BME280;14672;50.250;8.312;2023-03-15T11:17:28;98956.94;;;10.64;52.80
27144;BME280;14672;50.250;8.312;2023-03-15T11:20:02;98958.88;;;10.67;53.46
27144;BME280;14672;50.250;8.312;2023-03-15T11:22:38;98972.97;;;10.58;54.03
27144;BME280;14672;50.250;8.312;2023-03-15T11:25:11;98963.66;;;10.45;53.51
27144;BME280;14672;50.250;8.312;2023-03-15T11:27:38;98968.56;;;10.19;53.11
27144;BME280;14672;50.250;8.312;2023-03-15T11:30:11;98975.03;;;10.19;52.39
27144;BME280;14672;50.250;8.312;2023-03-15T11:32:38;98976.03;;;10.13;52.42
27144;BME280;14672;50.250;8.312;2023-03-15T11:35:11;98982.09;;;10.15;53.12
27144;BME280;14672;50.250;8.312;2023-03-15T11:37:41;98976.97;;;10.22;53.00
27144;BME280;14672;50.250;8.312;2023-03-15T11:40:29;98983.66;;;10.41;53.10
27144;BME280;14672;50.250;8.312;2023-03-15T11:45:55;98978.91;;;10.38;52.86
27144;BME280;14672;50.250;8.312;2023-03-15T11:48:24;98995.59;;;10.36;52.75
27144;BME280;14672;50.250;8.312;2023-03-15T11:50:56;98993.84;;;10.13;52.01
27144;BME280;14672;50.250;8.312;2023-03-15T11:53:30;99001.13;;;10.14;51.10
27144;BME280;14672;50.250;8.312;2023-03-15T11:59:10;98997.84;;;10.16;49.88
27144;BME280;14672;50.250;8.312;2023-03-15T12:01:48;98993.31;;;10.18;50.70
27144;BME280;14672;50.250;8.312;2023-03-15T12:17:58;99015.38;;;10.27;49.85
27144;BME280;14672;50.250;8.312;2023-03-15T12:20:57;99006.94;;;11.21;49.53
27144;BME280;14672;50.250;8.312;2023-03-15T12:23:45;99032.22;;;11.75;48.73
27144;BME280;14672;50.250;8.312;2023-03-15T12:26:26;99005.81;;;12.27;47.37
27144;BME280;14672;50.250;8.312;2023-03-15T12:31:50;99016.13;;;12.64;45.90
27144;BME280;14672;50.250;8.312;2023-03-15T12:37:43;99014.81;;;13.05;42.15
27144;BME280;14672;50.250;8.312;2023-03-15T12:59:16;99007.28;;;12.71;41.28
27144;BME280;14672;50.250;8.312;2023-03-15T13:01:44;99012.75;;;12.57;42.27
27144;BME280;14672;50.250;8.312;2023-03-15T13:04:12;99000.66;;;12.44;41.55
27144;BME280;14672;50.250;8.312;2023-03-15T13:12:27;99010.84;;;12.94;40.19
27144;BME280;14672;50.250;8.312;2023-03-15T13:15:18;99005.13;;;13.03;40.22
27144;BME280;14672;50.250;8.312;2023-03-15T13:17:51;98995.69;;;13.51;40.50
27144;BME280;14672;50.250;8.312;2023-03-15T13:23:19;99004.91;;;14.52;40.39
27144;BME280;14672;50.250;8.312;2023-03-15T13:25:52;98995.38;;;14.79;40.72
27144;BME280;14672;50.250;8.312;2023-03-15T13:28:35;99003.66;;;14.44;41.39
27144;BME280;14672;50.250;8.312;2023-03-15T13:33:50;99004.44;;;14.77;40.41
27144;BME280;14672;50.250;8.312;2023-03-15T13:36:26;99005.38;;;14.41;39.69
27144;BME280;14672;50.250;8.312;2023-03-15T13:38:55;98999.91;;;14.62;38.50
27144;BME280;14672;50.250;8.312;2023-03-15T13:41:25;98993.22;;;14.97;38.02
27144;BME280;14672;50.250;8.312;2023-03-15T13:43:59;98997.47;;;15.26;37.41
27144;BME280;14672;50.250;8.312;2023-03-15T13:46:29;98981.75;;;15.21;36.00
27144;BME280;14672;50.250;8.312;2023-03-15T13:48:56;98982.91;;;15.62;36.72
27144;BME280;14672;50.250;8.312;2023-03-15T13:57:19;98987.91;;;16.06;37.46
27144;BME280;14672;50.250;8.312;2023-03-15T13:59:56;98991.84;;;15.93;37.66
27144;BME280;14672;50.250;8.312;2023-03-15T14:02:53;98995.72;;;15.52;36.82
27144;BME280;14672;50.250;8.312;2023-03-15T14:05:27;98996.94;;;15.13;36.41
27144;BME280;14672;50.250;8.312;2023-03-15T14:08:02;98997.38;;;15.20;37.04
27144;BME280;14672;50.250;8.312;2023-03-15T14:10:39;98995.16;;;14.91;37.41
27144;BME280;14672;50.250;8.312;2023-03-15T14:13:27;99008.81;;;15.20;37.10
27144;BME280;14672;50.250;8.312;2023-03-15T14:16:27;99001.75;;;15.54;35.72
27144;BME280;14672;50.250;8.312;2023-03-15T14:21:50;98992.28;;;15.63;35.61
27144;BME280;14672;50.250;8.312;2023-03-15T14:24:39;98999.09;;;15.65;35.23
27144;BME280;14672;50.250;8.312;2023-03-15T14:27:21;98993.63;;;15.76;33.46
27144;BME280;14672;50.250;8.312;2023-03-15T14:29:56;98995.59;;;15.85;33.98
27144;BME280;14672;50.250;8.312;2023-03-15T14:32:26;99007.22;;;15.81;33.92
27144;BME280;14672;50.250;8.312;2023-03-15T14:38:12;99012.41;;;15.92;33.07
27144;BME280;14672;50.250;8.312;2023-03-15T14:40:40;99011.63;;;15.91;33.71
27144;BME280;14672;50.250;8.312;2023-03-15T14:43:09;99004.31;;;16.05;33.04
27144;BME280;14672;50.250;8.312;2023-03-15T14:45:39;99014.88;;;16.14;32.85
27144;BME280;14672;50.250;8.312;2023-03-15T14:48:25;99013.59;;;16.15;32.20
27144;BME280;14672;50.250;8.312;2023-03-15T14:50:52;99008.47;;;16.19;32.76
27144;BME280;14672;50.250;8.312;2023-03-15T14:53:21;99021.72;;;16.31;32.96
27144;BME280;14672;50.250;8.312;2023-03-15T14:55:48;99014.78;;;16.37;32.44
27144;BME280;14672;50.250;8.312;2023-03-15T14:58:17;99021.28;;;15.94;32.09